Time;durP1;ratioP1;P1;durP2;ratioP2;P2;SDS_P1;SDS_P2;PMS_P1;PMS_P2;Temp;Humidity;BMP_temperature;BMP_pressure;BME280_temperature;BME280_humidity;BME280_pressure;Samples;Min_cycle;Max_cycle;Signal;HPM_P1;HPM_P2
2022/06/05 00:02:31;;;;;;;10.63;9.13;;;16.00;82.40;;;;;;5033559;28;20463;-80
2022/06/05 00:05:03;;;;;;;13.40;7.97;;;16.10;80.90;;;;;;5032970;28;20455;-81
2022/06/05 00:07:37;;;;;;;8.90;6.70;;;16.20;79.00;;;;;;5032894;28;20476;-81
2022/06/05 00:10:11;;;;;;;9.60;7.40;;;16.40;77.20;;;;;;5031795;28;20472;-81
2022/06/05 00:12:45;;;;;;;9.43;6.90;;;16.50;75.00;;;;;;5032882;28;20452;-80
2022/06/05 00:15:11;;;;;;;8.50;6.20;;;16.50;75.00;;;;;;5033184;28;20452;-80
2022/06/05 00:17:38;;;;;;;9.10;7.00;;;16.60;74.30;;;;;;5032543;28;20491;-82
2022/06/05 00:20:08;;;;;;;10.37;7.20;;;16.70;74.10;;;;;;5031859;28;20473;-80
2022/06/05 00:22:35;;;;;;;7.90;6.13;;;16.60;73.80;;;;;;5033069;28;20458;-80
2022/06/05 00:25:02;;;;;;;9.57;7.27;;;16.50;74.40;;;;;;5032569;28;20477;-80
2022/06/05 00:27:38;;;;;;;9.63;7.10;;;16.50;75.40;;;;;;5032888;28;20480;-80
2022/06/05 00:30:17;;;;;;;8.63;7.20;;;16.60;75.10;;;;;;5031966;28;20489;-79
2022/06/05 00:32:49;;;;;;;8.87;6.83;;;16.60;75.10;;;;;;5032771;28;20448;-80
2022/06/05 00:35:20;;;;;;;8.97;7.50;;;16.80;73.90;;;;;;5032987;28;20456;-80
2022/06/05 00:37:59;;;;;;;12.70;7.53;;;16.80;73.30;;;;;;5032586;28;20969;-80
2022/06/05 00:40:33;;;;;;;9.77;7.97;;;16.80;72.90;;;;;;5031886;28;20491;-80
2022/06/05 00:43:05;;;;;;;9.40;7.60;;;17.00;72.10;;;;;;5032487;28;20448;-80
2022/06/05 00:45:32;;;;;;;9.67;7.20;;;16.90;71.60;;;;;;5032369;28;20448;-81
2022/06/05 00:47:59;;;;;;;16.73;8.90;;;16.90;72.40;;;;;;5032257;28;20833;-80
2022/06/05 00:50:28;;;;;;;11.13;8.00;;;16.90;72.60;;;;;;5031954;28;20480;-81
2022/06/05 00:52:58;;;;;;;10.47;8.07;;;16.90;74.40;;;;;;5032280;28;20449;-79
2022/06/05 00:55:28;;;;;;;10.70;9.23;;;16.80;74.20;;;;;;5032648;28;21067;-80
2022/06/05 00:57:56;;;;;;;10.80;8.90;;;16.70;75.00;;;;;;5032179;28;20475;-80
2022/06/05 01:00:29;;;;;;;12.27;9.10;;;16.70;75.10;;;;;;5032316;28;20569;-80
2022/06/05 01:02:59;;;;;;;11.30;9.07;;;16.60;76.00;;;;;;5032792;28;20460;-80
2022/06/05 01:05:27;;;;;;;11.50;8.83;;;16.60;77.20;;;;;;5032866;28;20457;-80
2022/06/05 01:07:55;;;;;;;9.70;8.53;;;16.60;78.90;;;;;;5032252;28;20477;-80
2022/06/05 01:10:26;;;;;;;8.87;7.90;;;16.60;79.00;;;;;;5031691;28;20477;-80
2022/06/05 01:13:06;;;;;;;11.30;9.17;;;16.60;79.50;;;;;;5032570;28;20475;-80
2022/06/05 01:15:42;;;;;;;8.87;7.93;;;16.70;78.00;;;;;;5032924;28;20518;-80
2022/06/05 01:18:17;;;;;;;10.27;8.20;;;16.80;77.30;;;;;;5031330;28;20833;-81
2022/06/05 01:20:54;;;;;;;11.50;9.60;;;16.90;77.70;;;;;;5032738;28;20495;-81
2022/06/05 01:23:44;;;;;;;8.70;7.80;;;16.80;77.50;;;;;;5032390;28;20458;-81
2022/06/05 01:26:20;;;;;;;12.93;9.30;;;16.80;78.30;;;;;;5032237;28;20479;-80
2022/06/05 01:28:53;;;;;;;11.77;9.20;;;16.60;79.10;;;;;;5032757;28;20476;-80
2022/06/05 01:31:28;;;;;;;13.20;8.13;;;16.60;80.10;;;;;;5036547;28;20531;-80
2022/06/05 01:34:04;;;;;;;14.33;9.47;;;16.50;80.50;;;;;;5036114;28;20454;-80
2022/06/05 01:36:38;;;;;;;9.90;8.70;;;16.50;82.90;;;;;;5036460;28;20452;-80
2022/06/05 01:39:10;;;;;;;11.00;9.90;;;16.40;82.80;;;;;;5057411;22;20521;-82
2022/06/05 01:41:42;;;;;;;12.77;9.97;;;16.40;82.80;;;;;;5031298;28;20524;-81
2022/06/05 01:44:13;;;;;;;15.87;11.30;;;16.30;84.10;;;;;;5042418;28;20453;-82
2022/06/05 01:46:40;;;;;;;12.53;10.83;;;16.30;85.90;;;;;;5037531;28;20476;-81
2022/06/05 01:49:12;;;;;;;15.13;11.50;;;16.20;86.30;;;;;;5021745;28;20473;-81
2022/06/05 01:51:48;;;;;;;13.50;12.20;;;16.20;87.90;;;;;;5022363;28;20464;-81
2022/06/05 01:54:18;;;;;;;12.23;11.03;;;16.20;88.30;;;;;;5022271;28;20537;-81
2022/06/05 01:56:51;;;;;;;15.10;13.50;;;16.20;88.80;;;;;;5022158;28;21018;-82
2022/06/05 01:59:22;;;;;;;14.70;13.33;;;16.20;89.40;;;;;;5021421;28;20989;-81
2022/06/05 02:01:53;;;;;;;16.53;15.03;;;16.10;90.00;;;;;;5022377;28;20472;-81
2022/06/05 02:04:23;;;;;;;16.93;15.33;;;16.10;90.50;;;;;;5022453;28;20511;-82
2022/06/05 02:06:54;;;;;;;18.63;17.23;;;16.00;91.10;;;;;;5022170;28;20473;-81
2022/06/05 02:09:26;;;;;;;17.17;15.77;;;16.00;92.00;;;;;;5021728;28;20477;-81
2022/06/05 02:11:54;;;;;;;17.97;16.67;;;16.10;92.40;;;;;;5022203;28;20460;-81
2022/06/05 02:14:21;;;;;;;16.17;14.90;;;16.10;92.20;;;;;;5022617;28;20446;-81
2022/06/05 02:16:48;;;;;;;14.67;13.33;;;16.10;91.40;;;;;;5021666;28;20954;-81
2022/06/05 02:19:18;;;;;;;15.70;14.10;;;16.20;91.40;;;;;;5020941;28;20481;-82
2022/06/05 02:21:45;;;;;;;10.87;9.60;;;16.40;89.90;;;;;;5022122;28;20453;-81
2022/06/05 02:24:13;;;;;;;11.40;9.33;;;16.60;85.30;;;;;;5021783;28;20476;-81
2022/06/05 02:26:41;;;;;;;8.37;7.47;;;16.70;81.80;;;;;;5021714;28;20557;-81
2022/06/05 02:29:17;;;;;;;9.93;8.10;;;16.80;78.50;;;;;;5020683;28;20551;-81
2022/06/05 02:31:57;;;;;;;9.00;7.37;;;17.00;75.40;;;;;;5021943;28;20460;-82
2022/06/05 02:34:34;;;;;;;15.03;8.10;;;17.10;73.70;;;;;;5021998;28;20449;-81
2022/06/05 02:37:07;;;;;;;8.87;7.67;;;17.10;72.50;;;;;;5021541;28;20431;-82
2022/06/05 02:39:43;;;;;;;8.27;6.10;;;17.20;72.10;;;;;;5020570;28;20482;-81
2022/06/05 02:42:23;;;;;;;11.43;7.83;;;17.20;71.50;;;;;;5021782;28;20452;-82
2022/06/05 02:44:56;;;;;;;9.73;7.13;;;17.20;70.60;;;;;;5021443;28;20469;-81
2022/06/05 02:47:31;;;;;;;8.40;6.83;;;17.20;70.10;;;;;;5022077;28;20550;-81
2022/06/05 02:50:07;;;;;;;7.20;6.00;;;17.20;69.80;;;;;;5019619;28;20485;-82
2022/06/05 02:52:35;;;;;;;9.00;6.70;;;17.10;70.30;;;;;;5020745;28;20460;-81
2022/06/05 02:55:07;;;;;;;8.43;6.93;;;17.10;70.80;;;;;;5021029;28;20451;-81
2022/06/05 02:57:34;;;;;;;8.97;7.50;;;17.00;70.90;;;;;;5021440;28;20439;-81
2022/06/05 03:00:02;;;;;;;9.50;6.97;;;17.00;71.70;;;;;;5020161;28;20843;-81
2022/06/05 03:05:14;;;;;;;10.63;7.67;;;16.90;72.90;;;;;;5018476;28;20946;-82
2022/06/05 03:07:40;;;;;;;8.50;6.60;;;16.90;73.30;;;;;;5016954;28;20478;-82
2022/06/05 03:10:08;;;;;;;9.07;7.57;;;16.80;73.60;;;;;;5017139;28;20490;-82
2022/06/05 03:12:34;;;;;;;10.80;8.13;;;16.90;73.30;;;;;;5018465;28;20455;-81
2022/06/05 03:15:03;;;;;;;8.23;6.37;;;16.80;73.00;;;;;;5018968;28;20466;-81
2022/06/05 03:17:30;;;;;;;9.43;7.00;;;16.90;73.30;;;;;;5017015;28;20450;-83
2022/06/05 03:19:57;;;;;;;10.40;7.03;;;16.80;74.90;;;;;;5019805;28;20856;-82
2022/06/05 03:22:25;;;;;;;9.77;7.60;;;16.80;74.70;;;;;;5018439;28;20477;-83
2022/06/05 03:24:52;;;;;;;11.00;7.20;;;16.70;75.10;;;;;;5018480;28;20459;-82
2022/06/05 03:27:20;;;;;;;12.07;8.13;;;16.70;75.10;;;;;;5018769;28;20847;-82
2022/06/05 03:29:47;;;;;;;10.67;8.33;;;16.60;76.40;;;;;;5015612;28;20465;-85
2022/06/05 03:32:16;;;;;;;10.53;7.80;;;16.60;76.20;;;;;;5015360;28;20457;-84
2022/06/05 03:34:42;;;;;;;10.23;7.43;;;16.50;78.30;;;;;;5017391;28;20663;-85
2022/06/05 03:37:09;;;;;;;10.30;8.10;;;16.40;79.50;;;;;;5016949;28;20854;-84
2022/06/05 03:39:36;;;;;;;10.60;7.90;;;16.50;81.30;;;;;;5014810;28;20481;-84
2022/06/05 03:42:03;;;;;;;9.93;8.10;;;16.40;81.30;;;;;;5017648;28;20949;-85
2022/06/05 03:44:30;;;;;;;11.30;8.67;;;16.40;82.40;;;;;;5018754;28;20824;-85
2022/06/05 03:46:56;;;;;;;13.30;9.27;;;16.40;82.80;;;;;;5016040;28;20496;-85
2022/06/05 03:49:25;;;;;;;9.00;8.10;;;16.40;82.80;;;;;;5018639;28;20484;-85
2022/06/05 03:51:51;;;;;;;10.23;8.20;;;16.40;82.80;;;;;;5018110;28;20450;-85
2022/06/05 03:54:18;;;;;;;9.20;8.30;;;16.40;82.80;;;;;;5015243;28;20488;-85
2022/06/05 03:56:45;;;;;;;10.73;9.57;;;16.30;85.80;;;;;;5017904;28;20472;-85
2022/06/05 03:59:11;;;;;;;13.73;12.30;;;16.20;86.90;;;;;;5017342;28;20482;-85
2022/06/05 04:01:38;;;;;;;15.50;14.00;;;16.20;88.80;;;;;;5014325;28;20454;-85
2022/06/05 04:04:05;;;;;;;15.07;13.87;;;16.10;90.00;;;;;;5016938;28;20454;-85
2022/06/05 04:06:33;;;;;;;19.67;18.27;;;16.10;90.40;;;;;;5016542;28;20520;-85
2022/06/05 04:09:02;;;;;;;26.73;25.13;;;16.10;91.10;;;;;;5016971;28;20453;-85
2022/06/05 04:11:31;;;;;;;36.13;34.07;;;16.00;92.90;;;;;;5019931;28;20465;-85
2022/06/05 04:13:58;;;;;;;39.97;37.67;;;16.00;93.40;;;;;;5016293;28;20461;-87
2022/06/05 04:16:30;;;;;;;38.87;36.67;;;16.00;94.00;;;;;;5013195;28;20449;-86
2022/06/05 04:18:58;;;;;;;36.47;34.40;;;16.00;94.00;;;;;;5015085;28;20457;-82
2022/06/05 04:21:27;;;;;;;32.77;30.80;;;16.00;94.10;;;;;;5017422;28;20456;-83
2022/06/05 04:23:56;;;;;;;29.60;27.77;;;16.10;93.90;;;;;;5014213;28;20453;-85
2022/06/05 04:26:24;;;;;;;26.23;24.07;;;16.10;93.50;;;;;;5014197;28;20464;-84
2022/06/05 04:28:53;;;;;;;22.77;21.20;;;16.20;93.30;;;;;;5016529;28;20477;-84
2022/06/05 04:31:21;;;;;;;23.27;21.27;;;16.20;92.50;;;;;;5014036;28;20536;-84
2022/06/05 04:33:49;;;;;;;20.60;19.10;;;16.40;92.10;;;;;;5015055;28;20465;-83
2022/06/05 04:36:16;;;;;;;16.63;15.13;;;16.50;91.70;;;;;;5017394;28;20474;-84
2022/06/05 04:38:43;;;;;;;14.27;12.97;;;16.50;90.80;;;;;;5013857;28;20445;-84
2022/06/05 04:41:12;;;;;;;15.43;14.03;;;16.60;90.30;;;;;;5016937;28;20465;-84
2022/06/05 04:43:39;;;;;;;16.90;15.43;;;16.70;90.30;;;;;;5016866;28;20501;-84
2022/06/05 04:46:06;;;;;;;15.70;14.30;;;16.80;90.50;;;;;;5014198;28;20461;-84
2022/06/05 04:48:33;;;;;;;12.40;11.20;;;16.90;90.40;;;;;;5014005;28;20478;-82
2022/06/05 04:51:02;;;;;;;13.20;10.00;;;17.00;88.20;;;;;;5014730;28;20477;-84
2022/06/05 04:53:29;;;;;;;9.97;8.97;;;17.10;84.80;;;;;;5014641;28;20964;-84
2022/06/05 04:55:56;;;;;;;9.60;8.43;;;17.20;83.50;;;;;;5016249;28;20463;-85
2022/06/05 04:58:24;;;;;;;11.70;7.80;;;17.30;81.80;;;;;;5016946;28;20454;-84
2022/06/05 05:00:50;;;;;;;9.00;8.07;;;17.40;80.40;;;;;;5015325;28;20475;-85
2022/06/05 05:03:17;;;;;;;10.27;8.40;;;17.50;79.40;;;;;;5018076;28;20467;-84
2022/06/05 05:05:44;;;;;;;8.53;7.27;;;17.60;78.80;;;;;;5021279;28;20457;-84
2022/06/05 05:08:11;;;;;;;9.47;7.77;;;17.70;78.00;;;;;;5019798;28;20481;-83
2022/06/05 05:10:37;;;;;;;9.17;7.30;;;17.70;77.50;;;;;;5021249;28;20475;-84
2022/06/05 05:13:04;;;;;;;7.77;6.60;;;17.80;76.20;;;;;;5020923;28;20463;-84
2022/06/05 05:15:32;;;;;;;11.17;7.53;;;17.90;76.50;;;;;;5020583;28;20968;-85
2022/06/05 05:17:59;;;;;;;8.90;7.10;;;17.90;76.30;;;;;;5020224;28;20449;-85
2022/06/05 05:20:26;;;;;;;8.70;7.37;;;18.00;77.20;;;;;;5020431;28;20480;-85
2022/06/05 05:22:53;;;;;;;11.90;6.57;;;18.00;76.40;;;;;;5021140;28;20458;-85
2022/06/05 05:25:20;;;;;;;9.07;6.67;;;18.20;74.70;;;;;;5020635;28;20459;-85
2022/06/05 05:27:46;;;;;;;7.80;6.60;;;18.20;72.70;;;;;;5021701;28;20975;-85
2022/06/05 05:30:14;;;;;;;9.17;6.77;;;18.30;72.30;;;;;;5021760;28;20474;-85
2022/06/05 05:32:42;;;;;;;11.57;7.03;;;18.30;70.70;;;;;;5021563;28;20460;-84
2022/06/05 05:35:10;;;;;;;8.90;6.27;;;18.50;70.10;;;;;;5020703;28;20859;-85
2022/06/05 05:37:37;;;;;;;8.00;7.20;;;18.50;70.30;;;;;;5020153;28;20502;-85
2022/06/05 05:42:48;;;;;;;10.50;7.23;;;18.60;70.70;;;;;;5017443;28;20478;-84
2022/06/05 05:45:16;;;;;;;10.87;6.50;;;18.60;69.90;;;;;;5022787;28;20483;-83
2022/06/05 05:47:44;;;;;;;9.63;7.07;;;18.60;68.80;;;;;;5021015;28;20494;-85
2022/06/05 05:50:15;;;;;;;9.20;7.10;;;18.70;68.10;;;;;;5019486;28;20487;-84
2022/06/05 05:52:42;;;;;;;8.37;6.57;;;18.80;65.90;;;;;;5022939;28;20972;-84
2022/06/05 05:55:12;;;;;;;9.90;6.73;;;18.80;65.80;;;;;;5015351;28;20448;-85
2022/06/05 05:57:39;;;;;;;9.30;7.03;;;18.90;65.10;;;;;;5016080;28;20445;-84
2022/06/05 06:00:09;;;;;;;9.97;6.70;;;18.90;64.70;;;;;;5029488;28;20496;-84
2022/06/05 06:02:37;;;;;;;9.33;6.90;;;18.90;63.90;;;;;;5022058;28;20548;-83
2022/06/05 06:05:06;;;;;;;8.40;6.63;;;19.10;62.90;;;;;;5022018;28;20450;-83
2022/06/05 06:07:33;;;;;;;7.30;5.93;;;19.10;61.40;;;;;;5020592;28;20468;-81
2022/06/05 06:10:01;;;;;;;8.20;6.13;;;19.30;60.80;;;;;;5022316;28;20507;-81
2022/06/05 06:12:27;;;;;;;9.57;6.57;;;19.30;60.20;;;;;;5020667;28;20958;-80
2022/06/05 06:14:54;;;;;;;8.70;7.33;;;19.30;58.90;;;;;;5021636;28;20473;-81
2022/06/05 06:17:21;;;;;;;7.93;5.80;;;19.40;59.10;;;;;;5027345;28;20455;-83
2022/06/05 06:19:49;;;;;;;8.97;6.63;;;19.50;58.40;;;;;;5022703;28;20479;-83
2022/06/05 06:22:17;;;;;;;9.47;6.30;;;19.60;57.90;;;;;;5023228;28;20461;-82
2022/06/05 06:24:44;;;;;;;9.87;6.67;;;19.70;57.60;;;;;;5023300;28;20478;-81
2022/06/05 06:27:10;;;;;;;8.57;6.50;;;19.80;55.20;;;;;;5023258;28;20477;-83
2022/06/05 06:29:37;;;;;;;8.17;5.50;;;19.80;55.10;;;;;;5024476;28;20487;-81
2022/06/05 06:32:05;;;;;;;9.20;6.70;;;19.90;55.10;;;;;;5019838;28;20446;-82
2022/06/05 06:34:32;;;;;;;7.63;6.20;;;19.90;54.60;;;;;;5020195;28;20453;-82
2022/06/05 06:36:59;;;;;;;10.80;7.27;;;20.00;53.80;;;;;;5020424;28;20459;-82
2022/06/05 06:39:28;;;;;;;10.87;6.83;;;20.00;53.20;;;;;;5019092;28;20484;-81
2022/06/05 06:41:55;;;;;;;9.83;6.63;;;20.00;53.20;;;;;;5017904;28;20458;-84
2022/06/05 06:44:22;;;;;;;9.63;6.77;;;20.10;53.40;;;;;;5017479;28;20460;-81
2022/06/05 06:46:49;;;;;;;8.97;6.67;;;20.20;53.40;;;;;;5019111;28;20464;-84
2022/06/05 06:49:16;;;;;;;8.17;6.10;;;20.20;52.20;;;;;;5017769;28;20559;-83
2022/06/05 06:51:42;;;;;;;8.33;6.50;;;20.30;53.50;;;;;;5019222;28;20457;-83
2022/06/05 06:54:09;;;;;;;7.90;6.53;;;20.30;53.50;;;;;;5018822;28;20467;-82
2022/06/05 06:56:37;;;;;;;7.10;5.60;;;20.30;53.50;;;;;;5019994;28;20532;-83
2022/06/05 06:59:05;;;;;;;8.30;6.23;;;20.30;53.10;;;;;;5016050;28;20830;-84
2022/06/05 07:01:32;;;;;;;10.83;6.43;;;20.40;54.40;;;;;;5017056;28;20449;-83
2022/06/05 07:03:59;;;;;;;10.33;5.83;;;20.50;52.70;;;;;;5015659;28;20456;-82
2022/06/05 07:06:25;;;;;;;9.87;7.23;;;20.60;51.30;;;;;;5019724;28;20503;-82
2022/06/05 07:08:52;;;;;;;10.97;7.00;;;20.90;50.40;;;;;;5018632;28;20489;-81
2022/06/05 07:11:19;;;;;;;9.40;6.77;;;21.20;49.80;;;;;;5018106;28;20454;-82
2022/06/05 07:13:48;;;;;;;8.30;6.53;;;21.30;48.70;;;;;;5019207;28;20455;-82
2022/06/05 07:16:15;;;;;;;8.23;5.90;;;21.50;47.00;;;;;;5019126;28;20462;-82
2022/06/05 07:18:42;;;;;;;8.70;7.03;;;21.70;49.10;;;;;;5017924;28;20450;-83
2022/06/05 07:21:11;;;;;;;8.20;6.53;;;21.90;46.10;;;;;;5019902;28;20450;-82
2022/06/05 07:23:38;;;;;;;8.13;6.37;;;22.20;45.60;;;;;;5021681;28;20462;-83
2022/06/05 07:26:08;;;;;;;8.63;6.77;;;22.50;43.50;;;;;;5013772;28;20462;-85
2022/06/05 07:28:35;;;;;;;11.67;7.30;;;22.60;42.90;;;;;;5014304;28;20484;-85
2022/06/05 07:31:05;;;;;;;8.57;6.03;;;22.90;43.20;;;;;;5015558;28;20468;-85
2022/06/05 07:33:31;;;;;;;8.60;6.23;;;23.00;40.60;;;;;;5015618;28;20820;-84
2022/06/05 07:36:00;;;;;;;8.20;6.60;;;23.20;43.30;;;;;;5013784;28;20766;-84
2022/06/05 07:38:27;;;;;;;8.80;5.90;;;23.30;38.80;;;;;;5015008;28;20454;-86
2022/06/05 07:40:54;;;;;;;11.80;6.33;;;23.30;38.40;;;;;;5068637;22;20991;-84
2022/06/05 07:43:21;;;;;;;8.77;6.73;;;23.30;38.40;;;;;;5057112;28;20445;-84
2022/06/05 07:45:48;;;;;;;8.33;6.70;;;23.30;38.20;;;;;;5050831;28;20452;-83
2022/06/05 07:48:18;;;;;;;9.07;6.90;;;23.50;38.30;;;;;;5039393;28;20481;-83
2022/06/05 07:56:10;;;;;;;8.73;6.83;;;23.50;36.40;;;;;;5024407;28;20442;-84
2022/06/05 07:58:37;;;;;;;8.13;6.07;;;23.60;37.00;;;;;;5039534;28;20452;-86
2022/06/05 08:01:07;;;;;;;9.33;6.20;;;23.70;35.70;;;;;;5040821;28;20475;-85
2022/06/05 08:03:35;;;;;;;8.80;5.40;;;23.80;35.30;;;;;;5042800;28;20444;-85
2022/06/05 08:06:02;;;;;;;11.60;7.50;;;23.70;36.90;;;;;;5037489;28;20461;-83
2022/06/05 08:08:29;;;;;;;8.00;6.40;;;23.60;38.70;;;;;;5035412;28;20485;-84
2022/06/05 08:11:02;;;;;;;8.23;6.77;;;23.30;38.40;;;;;;5039390;28;20470;-82
2022/06/05 08:13:29;;;;;;;10.80;6.70;;;22.90;42.30;;;;;;5031521;28;20452;-83
2022/06/05 08:15:56;;;;;;;8.30;6.60;;;22.60;43.30;;;;;;5037475;28;20807;-83
2022/06/05 08:18:23;;;;;;;10.50;6.53;;;22.30;48.00;;;;;;5035365;28;20447;-83
2022/06/05 08:20:51;;;;;;;9.70;6.80;;;22.00;46.20;;;;;;5034316;28;20479;-83
2022/06/05 08:23:18;;;;;;;11.50;7.40;;;21.80;51.30;;;;;;5035272;28;20469;-83
2022/06/05 08:25:45;;;;;;;8.73;6.80;;;21.60;53.50;;;;;;5038252;28;20465;-83
2022/06/05 08:28:12;;;;;;;10.23;7.47;;;21.40;53.10;;;;;;5040425;28;20466;-83
2022/06/05 08:30:39;;;;;;;10.40;7.20;;;21.40;54.50;;;;;;5033123;28;20478;-83
2022/06/05 08:33:07;;;;;;;9.90;7.00;;;21.40;54.50;;;;;;5030811;28;20450;-83
2022/06/05 08:35:34;;;;;;;9.77;7.03;;;21.20;54.30;;;;;;5041323;28;20469;-83
2022/06/05 08:43:47;;;;;;;10.20;7.97;;;20.70;59.50;;;;;;5014903;28;20452;-83
2022/06/05 08:46:26;;;;;;;10.60;7.50;;;20.50;65.20;;;;;;5022576;28;20446;-83
2022/06/05 08:48:57;;;;;;;11.30;8.73;;;20.30;65.50;;;;;;5032213;28;20495;-83
2022/06/05 08:51:47;;;;;;;9.80;8.80;;;20.20;68.30;;;;;;5015691;28;20483;-83
2022/06/05 08:54:20;;;;;;;10.63;9.50;;;20.10;72.40;;;;;;5020208;28;20454;-83
2022/06/05 08:56:49;;;;;;;14.70;13.40;;;19.90;75.70;;;;;;5034115;28;20840;-83
2022/06/05 08:59:21;;;;;;;72.03;68.83;;;19.60;85.70;;;;;;5035435;28;20440;-83
2022/06/05 09:01:52;;;;;;;109.30;105.13;;;19.10;99.90;;;;;;5037680;28;20455;-83
2022/06/05 09:04:25;;;;;;;250.33;242.17;;;19.00;99.90;;;;;;5036091;28;20457;-84
2022/06/05 09:06:55;;;;;;;385.90;373.03;;;18.70;99.90;;;;;;5036711;28;20455;-84
2022/06/05 09:09:26;;;;;;;487.17;469.40;;;18.50;99.90;;;;;;5037571;28;20878;-84
2022/06/05 09:11:59;;;;;;;619.40;596.57;;;18.40;99.90;;;;;;5037315;28;20456;-84
2022/06/05 09:14:35;;;;;;;685.73;657.93;;;18.20;99.90;;;;;;5036451;28;20457;-84
2022/06/05 09:17:06;;;;;;;719.13;683.53;;;18.20;99.90;;;;;;5038578;28;20472;-84
2022/06/05 09:19:33;;;;;;;764.10;717.63;;;18.20;99.90;;;;;;5037181;28;20469;-84
2022/06/05 09:22:05;;;;;;;731.13;688.57;;;18.10;99.90;;;;;;5036835;28;20482;-84
2022/06/05 09:24:46;;;;;;;782.63;729.70;;;18.20;99.90;;;;;;5037901;28;20507;-84
2022/06/05 09:27:24;;;;;;;774.80;721.93;;;18.30;99.90;;;;;;5038021;28;20454;-83
2022/06/05 09:30:00;;;;;;;745.77;697.73;;;18.50;99.90;;;;;;5035794;28;20478;-84
2022/06/05 09:32:57;;;;;;;744.53;697.83;;;18.60;99.90;;;;;;5039687;28;20468;-84
2022/06/05 09:35:30;;;;;;;727.77;683.60;;;18.70;99.90;;;;;;5021864;28;20736;-84
2022/06/05 09:38:01;;;;;;;711.80;672.40;;;18.80;99.90;;;;;;5036884;28;20466;-84
2022/06/05 09:40:34;;;;;;;713.30;673.80;;;18.80;99.90;;;;;;5035457;28;20999;-83
2022/06/05 09:43:22;;;;;;;720.00;681.73;;;18.80;99.90;;;;;;5038604;28;20464;-83
2022/06/05 09:46:02;;;;;;;715.53;678.47;;;18.80;99.90;;;;;;5037125;28;20452;-83
2022/06/05 09:48:37;;;;;;;731.70;689.90;;;18.80;99.90;;;;;;5037919;28;20525;-83
2022/06/05 09:51:09;;;;;;;721.53;682.20;;;18.90;99.90;;;;;;5041427;28;20467;-83
2022/06/05 09:53:42;;;;;;;744.37;701.70;;;18.80;99.90;;;;;;5040936;28;20506;-83
2022/06/05 09:56:18;;;;;;;729.87;687.87;;;18.90;99.90;;;;;;5043508;28;20928;-84
2022/06/05 09:58:54;;;;;;;620.77;584.43;;;18.80;99.90;;;;;;5041792;28;20451;-83
2022/06/05 10:01:25;;;;;;;712.17;667.20;;;18.80;99.90;;;;;;5041872;28;20545;-83
2022/06/05 10:03:52;;;;;;;773.70;722.00;;;18.80;99.90;;;;;;5044608;28;20456;-83
2022/06/05 10:06:28;;;;;;;801.03;744.70;;;18.80;99.90;;;;;;5043766;28;20452;-83
2022/06/05 10:09:03;;;;;;;821.60;764.13;;;19.00;99.90;;;;;;5040172;28;20979;-84
2022/06/05 10:11:40;;;;;;;822.43;764.90;;;19.10;99.90;;;;;;5042459;28;20487;-83
2022/06/05 10:14:20;;;;;;;835.40;774.73;;;19.40;99.90;;;;;;5042756;28;20470;-83
2022/06/05 10:16:53;;;;;;;795.93;738.57;;;19.90;99.90;;;;;;5041089;28;20441;-83
2022/06/05 10:19:53;;;;;;;794.20;738.30;;;20.10;99.90;;;;;;5037928;28;20448;-84
2022/06/05 10:25:25;;;;;;;774.50;725.83;;;20.60;99.90;;;;;;5039597;28;20518;-84
2022/06/05 10:27:56;;;;;;;780.97;735.70;;;20.90;99.90;;;;;;5038203;28;20458;-83
2022/06/05 10:30:29;;;;;;;707.80;675.30;;;21.00;99.90;;;;;;5040990;28;20492;-84
2022/06/05 10:33:02;;;;;;;645.47;619.53;;;20.80;99.90;;;;;;5043629;28;20529;-84
2022/06/05 10:35:36;;;;;;;643.10;616.03;;;20.70;99.90;;;;;;5045203;28;20452;-84
2022/06/05 10:38:17;;;;;;;616.17;591.10;;;20.70;99.90;;;;;;5041838;28;20461;-84
2022/06/05 10:40:49;;;;;;;660.37;630.87;;;20.70;99.90;;;;;;5026940;28;20485;-83
2022/06/05 10:43:25;;;;;;;578.67;555.53;;;20.80;99.90;;;;;;5045478;28;20466;-83
2022/06/05 10:45:57;;;;;;;629.97;602.90;;;20.60;99.90;;;;;;5043876;28;20455;-83
2022/06/05 10:48:41;;;;;;;656.03;627.33;;;20.50;99.90;;;;;;5042321;28;20817;-86
2022/06/05 10:51:18;;;;;;;636.63;609.13;;;20.50;99.90;;;;;;5043452;28;20477;-84
2022/06/05 10:53:48;;;;;;;626.60;600.30;;;20.40;99.90;;;;;;5042641;28;20449;-84
2022/06/05 10:56:26;;;;;;;562.30;540.53;;;20.40;99.90;;;;;;5042311;28;20459;-84
2022/06/05 10:59:00;;;;;;;570.53;547.57;;;20.20;99.90;;;;;;5042732;28;20444;-84
2022/06/05 11:02:01;;;;;;;586.07;561.87;;;20.20;99.90;;;;;;5041420;28;20468;-84
2022/06/05 11:04:39;;;;;;;589.93;565.43;;;20.50;99.90;;;;;;5039787;28;20456;-84
2022/06/05 11:07:22;;;;;;;660.43;629.97;;;20.80;99.90;;;;;;5040255;28;20453;-84
2022/06/05 11:09:53;;;;;;;658.13;628.63;;;21.20;99.90;;;;;;5021506;28;20486;-84
2022/06/05 11:15:19;;;;;;;316.37;305.77;;;22.00;99.90;;;;;;5025743;28;20491;-84
2022/06/05 11:18:02;;;;;;;246.13;237.97;;;22.00;99.40;;;;;;5022621;28;20853;-84
2022/06/05 11:20:30;;;;;;;211.60;204.53;;;21.50;97.30;;;;;;5041135;28;21016;-84
2022/06/05 11:23:00;;;;;;;250.23;241.97;;;21.10;99.90;;;;;;5045973;28;20462;-84
2022/06/05 11:25:31;;;;;;;448.27;432.93;;;21.00;99.90;;;;;;5041481;28;20453;-84
2022/06/05 11:28:12;;;;;;;558.20;536.43;;;21.20;99.90;;;;;;5043916;28;20462;-84
2022/06/05 11:30:48;;;;;;;468.80;452.10;;;21.30;99.90;;;;;;5039323;28;20477;-85
2022/06/05 11:33:20;;;;;;;367.50;355.00;;;21.40;99.90;;;;;;5037397;28;20462;-84
2022/06/05 11:35:59;;;;;;;231.93;224.03;;;21.70;99.90;;;;;;5025100;28;20965;-83
2022/06/05 11:38:38;;;;;;;236.87;229.03;;;21.80;99.50;;;;;;5040180;28;20455;-84
2022/06/05 11:41:14;;;;;;;89.27;85.40;;;22.70;97.50;;;;;;5041878;28;20471;-84
2022/06/05 11:43:42;;;;;;;14.40;12.00;;;23.40;93.10;;;;;;5043778;28;20453;-84
2022/06/05 11:46:19;;;;;;;13.70;11.43;;;23.30;84.10;;;;;;5040405;28;20454;-82
2022/06/05 11:48:51;;;;;;;13.43;11.93;;;24.10;80.40;;;;;;5037368;28;20457;-83
2022/06/05 11:51:22;;;;;;;11.83;10.63;;;24.60;74.40;;;;;;5044005;28;20473;-84
2022/06/05 11:54:02;;;;;;;11.40;9.40;;;24.70;71.80;;;;;;5043538;28;20455;-84
2022/06/05 11:57:03;;;;;;;12.90;10.10;;;24.90;64.20;;;;;;5042246;28;20447;-84
2022/06/05 11:59:39;;;;;;;10.67;9.37;;;25.30;60.60;;;;;;5030373;28;21796;-84
2022/06/05 12:02:38;;;;;;;11.40;9.57;;;25.30;63.00;;;;;;5042879;28;20971;-84
2022/06/05 12:05:14;;;;;;;11.63;10.43;;;25.50;56.20;;;;;;5040731;28;20475;-85
2022/06/05 12:07:41;;;;;;;9.30;8.00;;;25.70;58.40;;;;;;5043918;28;20455;-84
2022/06/05 12:10:16;;;;;;;10.83;8.23;;;26.20;55.40;;;;;;5041439;28;20484;-85
2022/06/05 12:12:47;;;;;;;12.10;7.87;;;25.30;54.40;;;;;;5022254;28;20671;-84
2022/06/05 12:15:23;;;;;;;10.23;7.97;;;25.10;57.70;;;;;;5038333;28;20454;-84
2022/06/05 12:18:00;;;;;;;9.80;7.40;;;26.00;53.10;;;;;;5043194;28;20488;-84
2022/06/05 12:20:34;;;;;;;9.90;7.50;;;26.80;48.60;;;;;;5041099;28;20526;-85
2022/06/05 12:23:08;;;;;;;10.87;7.83;;;26.90;44.70;;;;;;5044452;28;20447;-84
2022/06/05 12:25:45;;;;;;;13.10;8.80;;;27.10;42.20;;;;;;5044390;28;20458;-85
2022/06/05 12:28:15;;;;;;;10.57;8.10;;;26.70;41.20;;;;;;5040979;28;20462;-85
2022/06/05 12:30:49;;;;;;;10.83;7.80;;;26.90;43.90;;;;;;5044701;28;20530;-84
2022/06/05 12:33:23;;;;;;;8.90;7.10;;;26.40;45.50;;;;;;5044054;28;20478;-85
2022/06/05 12:35:54;;;;;;;9.00;7.03;;;26.40;44.00;;;;;;5042230;28;20448;-84
2022/06/05 12:38:36;;;;;;;9.13;7.20;;;27.10;40.40;;;;;;5043673;28;20463;-85
2022/06/05 12:41:11;;;;;;;9.47;8.30;;;26.80;39.80;;;;;;5043806;28;20479;-85
2022/06/05 12:43:54;;;;;;;9.40;7.50;;;26.60;41.10;;;;;;5041112;28;20444;-84
2022/06/05 12:47:10;;;;;;;;;;;;;;;;;;;;;
2022/06/05 12:50:03;;;;;;;12.10;8.93;;;25.60;43.10;;;;;;5040388;28;20483;-85
2022/06/05 12:52:37;;;;;;;9.47;7.10;;;25.50;48.90;;;;;;5037338;28;20460;-85
2022/06/05 12:55:12;;;;;;;11.67;7.63;;;25.80;45.10;;;;;;5044294;28;20774;-85
2022/06/05 12:57:49;;;;;;;8.20;6.70;;;25.80;45.90;;;;;;5041385;28;20521;-85
2022/06/05 13:00:19;;;;;;;9.10;6.50;;;26.20;41.10;;;;;;5041835;28;20488;-84
2022/06/05 13:02:52;;;;;;;16.03;6.70;;;26.80;41.30;;;;;;5043120;28;20455;-84
2022/06/05 13:05:36;;;;;;;9.50;7.10;;;26.70;38.10;;;;;;5041837;28;20459;-85
2022/06/05 13:08:08;;;;;;;9.30;7.67;;;26.50;39.10;;;;;;5042906;28;20444;-84
2022/06/05 13:10:39;;;;;;;9.37;7.87;;;26.50;41.00;;;;;;5044253;28;20483;-84
2022/06/05 13:13:19;;;;;;;8.70;7.10;;;26.30;41.80;;;;;;5040893;28;20453;-84
2022/06/05 13:15:51;;;;;;;9.30;6.70;;;25.70;40.40;;;;;;5043204;28;20448;-84
2022/06/05 13:18:25;;;;;;;9.33;7.60;;;25.30;45.00;;;;;;5042571;28;20459;-84
2022/06/05 13:21:08;;;;;;;9.20;7.33;;;25.10;46.20;;;;;;5040358;28;20475;-84